sensor_id;sensor_type;location;lat;lon;timestamp;P1;durP1;ratioP1;P2;durP2;ratioP2
42614;SDS011;28754;47.700;7.924;2024-01-15T00:00:34;22.88;;;13.48;;
42614;SDS011;28754;47.700;7.924;2024-01-15T00:03:20;25.65;;;12.68;;
42614;SDS011;28754;47.700;7.924;2024-01-15T00:06:07;24.08;;;12.18;;
42614;SDS011;28754;47.700;7.924;2024-01-15T00:08:54;29.48;;;15.73;;
42614;SDS011;28754;47.700;7.924;2024-01-15T00:11:40;22.83;;;13.07;;
42614;SDS011;28754;47.700;7.924;2024-01-15T00:14:28;27.85;;;14.25;;
42614;SDS011;28754;47.700;7.924;2024-01-15T00:17:15;30.27;;;15.05;;
42614;SDS011;28754;47.700;7.924;2024-01-15T00:20:01;26.13;;;13.32;;
42614;SDS011;28754;47.700;7.924;2024-01-15T00:22:49;30.77;;;16.50;;
42614;SDS011;28754;47.700;7.924;2024-01-15T00:25:36;25.58;;;13.25;;
42614;SDS011;28754;47.700;7.924;2024-01-15T00:28:22;23.48;;;12.77;;
42614;SDS011;28754;47.700;7.924;2024-01-15T00:31:09;27.15;;;14.00;;
42614;SDS011;28754;47.700;7.924;2024-01-15T00:33:56;21.90;;;12.20;;
42614;SDS011;28754;47.700;7.924;2024-01-15T00:36:43;24.57;;;13.63;;
42614;SDS011;28754;47.700;7.924;2024-01-15T00:39:30;22.90;;;13.27;;
42614;SDS011;28754;47.700;7.924;2024-01-15T00:42:16;28.30;;;13.40;;
42614;SDS011;28754;47.700;7.924;2024-01-15T00:45:03;28.55;;;12.52;;
42614;SDS011;28754;47.700;7.924;2024-01-15T00:47:51;24.90;;;12.20;;
42614;SDS011;28754;47.700;7.924;2024-01-15T00:50:38;23.80;;;12.13;;
42614;SDS011;28754;47.700;7.924;2024-01-15T00:53:25;21.42;;;11.30;;
42614;SDS011;28754;47.700;7.924;2024-01-15T00:56:12;21.40;;;10.75;;
42614;SDS011;28754;47.700;7.924;2024-01-15T00:58:59;19.50;;;10.82;;
42614;SDS011;28754;47.700;7.924;2024-01-15T01:01:46;25.67;;;12.43;;
42614;SDS011;28754;47.700;7.924;2024-01-15T01:04:33;23.75;;;12.60;;
42614;SDS011;28754;47.700;7.924;2024-01-15T01:07:20;21.52;;;11.25;;
42614;SDS011;28754;47.700;7.924;2024-01-15T01:10:07;23.50;;;10.77;;
42614;SDS011;28754;47.700;7.924;2024-01-15T01:12:53;18.23;;;10.20;;
42614;SDS011;28754;47.700;7.924;2024-01-15T01:15:40;18.02;;;9.77;;
42614;SDS011;28754;47.700;7.924;2024-01-15T01:18:27;21.80;;;11.05;;
42614;SDS011;28754;47.700;7.924;2024-01-15T01:21:14;25.67;;;12.32;;
42614;SDS011;28754;47.700;7.924;2024-01-15T01:24:00;22.33;;;8.90;;
42614;SDS011;28754;47.700;7.924;2024-01-15T01:26:47;23.00;;;9.80;;
42614;SDS011;28754;47.700;7.924;2024-01-15T01:29:35;13.48;;;7.55;;
42614;SDS011;28754;47.700;7.924;2024-01-15T01:32:21;17.13;;;7.40;;
42614;SDS011;28754;47.700;7.924;2024-01-15T01:35:08;19.08;;;9.73;;
42614;SDS011;28754;47.700;7.924;2024-01-15T01:37:55;26.10;;;11.98;;
42614;SDS011;28754;47.700;7.924;2024-01-15T01:40:41;23.73;;;9.75;;
42614;SDS011;28754;47.700;7.924;2024-01-15T01:43:28;21.33;;;10.57;;
42614;SDS011;28754;47.700;7.924;2024-01-15T01:46:15;23.98;;;10.93;;
42614;SDS011;28754;47.700;7.924;2024-01-15T01:49:02;18.47;;;10.00;;
42614;SDS011;28754;47.700;7.924;2024-01-15T01:51:51;24.90;;;10.80;;
42614;SDS011;28754;47.700;7.924;2024-01-15T01:54:38;23.52;;;10.27;;
42614;SDS011;28754;47.700;7.924;2024-01-15T01:57:26;20.70;;;9.40;;
42614;SDS011;28754;47.700;7.924;2024-01-15T02:00:13;21.27;;;8.77;;
42614;SDS011;28754;47.700;7.924;2024-01-15T02:03:00;15.38;;;8.25;;
42614;SDS011;28754;47.700;7.924;2024-01-15T02:05:49;15.55;;;7.47;;
42614;SDS011;28754;47.700;7.924;2024-01-15T02:08:36;13.35;;;6.57;;
42614;SDS011;28754;47.700;7.924;2024-01-15T02:11:23;15.50;;;7.00;;
42614;SDS011;28754;47.700;7.924;2024-01-15T02:14:10;17.10;;;7.77;;
42614;SDS011;28754;47.700;7.924;2024-01-15T02:16:57;14.27;;;7.57;;
42614;SDS011;28754;47.700;7.924;2024-01-15T02:19:44;20.57;;;10.03;;
42614;SDS011;28754;47.700;7.924;2024-01-15T02:22:30;18.93;;;10.00;;
42614;SDS011;28754;47.700;7.924;2024-01-15T02:25:17;35.10;;;15.87;;
42614;SDS011;28754;47.700;7.924;2024-01-15T02:28:05;28.63;;;13.80;;
42614;SDS011;28754;47.700;7.924;2024-01-15T02:30:55;35.23;;;14.43;;
42614;SDS011;28754;47.700;7.924;2024-01-15T02:33:42;31.73;;;14.23;;
42614;SDS011;28754;47.700;7.924;2024-01-15T02:36:31;34.60;;;17.07;;
42614;SDS011;28754;47.700;7.924;2024-01-15T02:39:17;30.50;;;14.40;;
42614;SDS011;28754;47.700;7.924;2024-01-15T02:42:04;35.73;;;15.50;;
42614;SDS011;28754;47.700;7.924;2024-01-15T02:44:51;32.93;;;14.37;;
42614;SDS011;28754;47.700;7.924;2024-01-15T02:47:38;32.60;;;16.70;;
42614;SDS011;28754;47.700;7.924;2024-01-15T02:50:24;37.53;;;15.80;;
42614;SDS011;28754;47.700;7.924;2024-01-15T02:53:11;34.13;;;17.07;;
42614;SDS011;28754;47.700;7.924;2024-01-15T02:55:58;32.97;;;16.77;;
42614;SDS011;28754;47.700;7.924;2024-01-15T02:58:44;36.30;;;17.30;;
42614;SDS011;28754;47.700;7.924;2024-01-15T03:01:31;24.83;;;12.53;;
42614;SDS011;28754;47.700;7.924;2024-01-15T03:04:18;31.23;;;14.80;;
42614;SDS011;28754;47.700;7.924;2024-01-15T03:07:04;28.57;;;13.00;;
42614;SDS011;28754;47.700;7.924;2024-01-15T03:09:52;22.97;;;11.83;;
42614;SDS011;28754;47.700;7.924;2024-01-15T03:12:38;22.13;;;11.57;;
42614;SDS011;28754;47.700;7.924;2024-01-15T03:15:25;18.07;;;9.70;;
42614;SDS011;28754;47.700;7.924;2024-01-15T03:18:12;23.03;;;10.73;;
42614;SDS011;28754;47.700;7.924;2024-01-15T03:20:58;15.83;;;9.57;;
42614;SDS011;28754;47.700;7.924;2024-01-15T03:23:47;23.77;;;10.73;;
42614;SDS011;28754;47.700;7.924;2024-01-15T03:26:33;19.83;;;9.60;;
42614;SDS011;28754;47.700;7.924;2024-01-15T03:29:20;18.23;;;9.40;;
42614;SDS011;28754;47.700;7.924;2024-01-15T03:32:07;19.00;;;10.63;;
42614;SDS011;28754;47.700;7.924;2024-01-15T03:34:54;22.47;;;10.57;;
42614;SDS011;28754;47.700;7.924;2024-01-15T03:37:41;21.90;;;11.27;;
42614;SDS011;28754;47.700;7.924;2024-01-15T03:40:27;24.77;;;12.83;;
42614;SDS011;28754;47.700;7.924;2024-01-15T03:43:14;31.07;;;12.47;;
42614;SDS011;28754;47.700;7.924;2024-01-15T03:46:01;25.03;;;11.83;;
42614;SDS011;28754;47.700;7.924;2024-01-15T03:48:48;25.20;;;10.90;;
42614;SDS011;28754;47.700;7.924;2024-01-15T03:51:34;26.93;;;11.27;;
42614;SDS011;28754;47.700;7.924;2024-01-15T03:54:21;25.97;;;10.90;;
42614;SDS011;28754;47.700;7.924;2024-01-15T03:57:08;22.03;;;11.50;;
42614;SDS011;28754;47.700;7.924;2024-01-15T03:59:54;21.53;;;11.00;;
42614;SDS011;28754;47.700;7.924;2024-01-15T04:02:41;21.83;;;9.90;;
42614;SDS011;28754;47.700;7.924;2024-01-15T04:05:27;20.93;;;10.17;;
42614;SDS011;28754;47.700;7.924;2024-01-15T04:08:14;19.67;;;9.83;;
42614;SDS011;28754;47.700;7.924;2024-01-15T04:11:01;17.60;;;9.27;;
42614;SDS011;28754;47.700;7.924;2024-01-15T04:13:47;19.10;;;10.17;;
42614;SDS011;28754;47.700;7.924;2024-01-15T04:16:34;22.10;;;9.90;;
42614;SDS011;28754;47.700;7.924;2024-01-15T04:19:21;20.53;;;10.20;;
42614;SDS011;28754;47.700;7.924;2024-01-15T04:22:07;17.90;;;8.97;;
42614;SDS011;28754;47.700;7.924;2024-01-15T04:24:54;21.60;;;9.70;;
42614;SDS011;28754;47.700;7.924;2024-01-15T04:27:41;16.30;;;7.90;;
42614;SDS011;28754;47.700;7.924;2024-01-15T04:30:27;19.83;;;8.87;;
42614;SDS011;28754;47.700;7.924;2024-01-15T04:33:14;16.57;;;9.27;;
42614;SDS011;28754;47.700;7.924;2024-01-15T04:36:01;18.60;;;9.10;;
42614;SDS011;28754;47.700;7.924;2024-01-15T04:38:51;18.70;;;9.40;;
42614;SDS011;28754;47.700;7.924;2024-01-15T04:41:37;18.80;;;9.87;;
42614;SDS011;28754;47.700;7.924;2024-01-15T04:44:24;20.93;;;9.83;;
42614;SDS011;28754;47.700;7.924;2024-01-15T04:47:11;24.97;;;11.03;;
42614;SDS011;28754;47.700;7.924;2024-01-15T04:49:57;21.30;;;11.43;;
42614;SDS011;28754;47.700;7.924;2024-01-15T04:52:44;24.07;;;12.33;;
42614;SDS011;28754;47.700;7.924;2024-01-15T04:55:31;26.87;;;13.20;;
42614;SDS011;28754;47.700;7.924;2024-01-15T04:58:17;29.40;;;13.47;;
42614;SDS011;28754;47.700;7.924;2024-01-15T05:01:04;30.87;;;13.97;;
42614;SDS011;28754;47.700;7.924;2024-01-15T05:03:50;29.07;;;12.57;;
42614;SDS011;28754;47.700;7.924;2024-01-15T05:06:37;25.17;;;13.03;;
42614;SDS011;28754;47.700;7.924;2024-01-15T05:09:24;31.83;;;15.43;;
42614;SDS011;28754;47.700;7.924;2024-01-15T05:12:11;30.37;;;14.90;;
42614;SDS011;28754;47.700;7.924;2024-01-15T05:14:57;23.23;;;11.73;;
42614;SDS011;28754;47.700;7.924;2024-01-15T05:17:44;26.03;;;12.60;;
42614;SDS011;28754;47.700;7.924;2024-01-15T05:20:30;24.33;;;11.00;;
42614;SDS011;28754;47.700;7.924;2024-01-15T05:23:17;26.37;;;11.03;;
42614;SDS011;28754;47.700;7.924;2024-01-15T05:26:04;24.57;;;9.77;;
42614;SDS011;28754;47.700;7.924;2024-01-15T05:28:50;24.10;;;11.27;;
42614;SDS011;28754;47.700;7.924;2024-01-15T05:31:37;16.53;;;7.67;;
42614;SDS011;28754;47.700;7.924;2024-01-15T05:34:24;16.97;;;8.43;;
42614;SDS011;28754;47.700;7.924;2024-01-15T05:37:10;15.30;;;7.73;;
42614;SDS011;28754;47.700;7.924;2024-01-15T05:39:58;14.03;;;6.67;;
42614;SDS011;28754;47.700;7.924;2024-01-15T05:42:45;14.87;;;7.43;;
42614;SDS011;28754;47.700;7.924;2024-01-15T05:45:31;16.70;;;7.90;;
42614;SDS011;28754;47.700;7.924;2024-01-15T05:48:20;17.03;;;8.43;;
42614;SDS011;28754;47.700;7.924;2024-01-15T05:51:07;15.70;;;7.23;;
42614;SDS011;28754;47.700;7.924;2024-01-15T05:53:53;12.47;;;6.30;;
42614;SDS011;28754;47.700;7.924;2024-01-15T05:56:40;13.07;;;6.87;;
42614;SDS011;28754;47.700;7.924;2024-01-15T05:59:27;13.53;;;6.87;;
42614;SDS011;28754;47.700;7.924;2024-01-15T06:02:17;17.30;;;8.13;;
42614;SDS011;28754;47.700;7.924;2024-01-15T06:05:04;18.17;;;8.73;;
42614;SDS011;28754;47.700;7.924;2024-01-15T06:07:51;18.50;;;8.93;;
42614;SDS011;28754;47.700;7.924;2024-01-15T06:10:38;21.43;;;8.60;;
42614;SDS011;28754;47.700;7.924;2024-01-15T06:13:25;18.57;;;7.70;;
42614;SDS011;28754;47.700;7.924;2024-01-15T06:16:15;20.50;;;8.20;;
42614;SDS011;28754;47.700;7.924;2024-01-15T06:19:08;16.67;;;8.03;;
42614;SDS011;28754;47.700;7.924;2024-01-15T06:21:55;15.10;;;8.27;;
42614;SDS011;28754;47.700;7.924;2024-01-15T06:24:41;18.60;;;9.57;;
42614;SDS011;28754;47.700;7.924;2024-01-15T06:27:28;17.87;;;8.50;;
42614;SDS011;28754;47.700;7.924;2024-01-15T06:30:15;19.57;;;9.33;;
42614;SDS011;28754;47.700;7.924;2024-01-15T06:33:01;19.80;;;8.53;;
42614;SDS011;28754;47.700;7.924;2024-01-15T06:35:48;21.40;;;11.60;;
42614;SDS011;28754;47.700;7.924;2024-01-15T06:38:36;28.23;;;13.03;;
42614;SDS011;28754;47.700;7.924;2024-01-15T06:41:22;23.10;;;11.17;;
42614;SDS011;28754;47.700;7.924;2024-01-15T06:44:10;29.63;;;12.40;;
42614;SDS011;28754;47.700;7.924;2024-01-15T06:46:58;25.60;;;11.90;;
42614;SDS011;28754;47.700;7.924;2024-01-15T06:49:48;19.13;;;8.70;;
42614;SDS011;28754;47.700;7.924;2024-01-15T06:52:36;17.43;;;8.37;;
42614;SDS011;28754;47.700;7.924;2024-01-15T06:55:23;13.70;;;7.80;;
42614;SDS011;28754;47.700;7.924;2024-01-15T06:58:09;16.67;;;8.93;;
42614;SDS011;28754;47.700;7.924;2024-01-15T07:00:56;19.83;;;8.47;;
42614;SDS011;28754;47.700;7.924;2024-01-15T07:03:43;15.80;;;7.77;;
42614;SDS011;28754;47.700;7.924;2024-01-15T07:06:30;17.57;;;8.70;;
42614;SDS011;28754;47.700;7.924;2024-01-15T07:09:17;19.63;;;8.63;;
42614;SDS011;28754;47.700;7.924;2024-01-15T07:12:03;18.10;;;7.27;;
42614;SDS011;28754;47.700;7.924;2024-01-15T07:14:50;16.47;;;7.87;;
42614;SDS011;28754;47.700;7.924;2024-01-15T07:17:37;17.10;;;7.33;;
42614;SDS011;28754;47.700;7.924;2024-01-15T07:20:25;13.60;;;6.53;;
42614;SDS011;28754;47.700;7.924;2024-01-15T07:23:11;13.43;;;5.87;;
42614;SDS011;28754;47.700;7.924;2024-01-15T07:25:58;10.07;;;5.67;;
42614;SDS011;28754;47.700;7.924;2024-01-15T07:28:45;15.30;;;7.90;;
42614;SDS011;28754;47.700;7.924;2024-01-15T07:31:31;15.63;;;8.80;;
42614;SDS011;28754;47.700;7.924;2024-01-15T07:34:18;20.47;;;8.37;;
42614;SDS011;28754;47.700;7.924;2024-01-15T07:37:05;16.43;;;8.07;;
42614;SDS011;28754;47.700;7.924;2024-01-15T07:39:51;17.87;;;8.27;;
42614;SDS011;28754;47.700;7.924;2024-01-15T07:42:38;25.63;;;11.30;;
42614;SDS011;28754;47.700;7.924;2024-01-15T07:45:25;17.33;;;8.37;;
42614;SDS011;28754;47.700;7.924;2024-01-15T07:48:11;17.07;;;9.23;;
42614;SDS011;28754;47.700;7.924;2024-01-15T07:50:58;18.93;;;8.70;;
42614;SDS011;28754;47.700;7.924;2024-01-15T07:53:45;24.90;;;11.47;;
42614;SDS011;28754;47.700;7.924;2024-01-15T07:56:32;27.03;;;13.37;;
42614;SDS011;28754;47.700;7.924;2024-01-15T07:59:19;14.57;;;7.27;;
42614;SDS011;28754;47.700;7.924;2024-01-15T08:02:05;12.83;;;7.43;;
42614;SDS011;28754;47.700;7.924;2024-01-15T08:04:52;17.30;;;8.17;;
42614;SDS011;28754;47.700;7.924;2024-01-15T08:07:39;12.43;;;7.97;;
42614;SDS011;28754;47.700;7.924;2024-01-15T08:10:25;18.47;;;8.00;;
42614;SDS011;28754;47.700;7.924;2024-01-15T08:13:12;10.43;;;5.77;;
42614;SDS011;28754;47.700;7.924;2024-01-15T08:15:59;10.77;;;5.67;;
42614;SDS011;28754;47.700;7.924;2024-01-15T08:18:45;9.23;;;5.03;;
42614;SDS011;28754;47.700;7.924;2024-01-15T08:21:33;8.20;;;4.90;;
42614;SDS011;28754;47.700;7.924;2024-01-15T08:24:20;6.97;;;4.60;;
42614;SDS011;28754;47.700;7.924;2024-01-15T08:27:06;8.50;;;4.40;;
42614;SDS011;28754;47.700;7.924;2024-01-15T08:29:53;9.03;;;5.07;;
42614;SDS011;28754;47.700;7.924;2024-01-15T08:32:40;7.60;;;4.10;;
42614;SDS011;28754;47.700;7.924;2024-01-15T08:35:29;11.10;;;4.70;;
42614;SDS011;28754;47.700;7.924;2024-01-15T08:38:15;10.73;;;4.70;;
42614;SDS011;28754;47.700;7.924;2024-01-15T08:41:02;9.37;;;4.90;;
42614;SDS011;28754;47.700;7.924;2024-01-15T08:43:49;9.10;;;4.80;;
42614;SDS011;28754;47.700;7.924;2024-01-15T08:46:36;9.70;;;4.93;;
42614;SDS011;28754;47.700;7.924;2024-01-15T08:49:23;7.90;;;4.03;;
42614;SDS011;28754;47.700;7.924;2024-01-15T08:52:10;6.83;;;3.23;;
42614;SDS011;28754;47.700;7.924;2024-01-15T08:54:56;8.03;;;4.23;;
42614;SDS011;28754;47.700;7.924;2024-01-15T08:57:43;7.30;;;3.53;;
42614;SDS011;28754;47.700;7.924;2024-01-15T09:00:30;8.53;;;4.27;;
42614;SDS011;28754;47.700;7.924;2024-01-15T09:03:17;8.10;;;3.67;;
42614;SDS011;28754;47.700;7.924;2024-01-15T09:06:04;6.70;;;3.17;;
42614;SDS011;28754;47.700;7.924;2024-01-15T09:08:50;3.73;;;2.53;;
42614;SDS011;28754;47.700;7.924;2024-01-15T09:11:37;6.43;;;2.80;;
42614;SDS011;28754;47.700;7.924;2024-01-15T09:14:24;6.27;;;3.70;;
42614;SDS011;28754;47.700;7.924;2024-01-15T09:17:12;4.93;;;2.80;;
42614;SDS011;28754;47.700;7.924;2024-01-15T09:19:59;6.68;;;3.28;;
42614;SDS011;28754;47.700;7.924;2024-01-15T09:22:46;4.00;;;2.50;;
42614;SDS011;28754;47.700;7.924;2024-01-15T09:25:33;5.23;;;2.70;;
42614;SDS011;28754;47.700;7.924;2024-01-15T09:28:19;3.73;;;2.27;;
42614;SDS011;28754;47.700;7.924;2024-01-15T09:31:06;5.30;;;2.83;;
42614;SDS011;28754;47.700;7.924;2024-01-15T09:33:53;5.70;;;3.07;;
42614;SDS011;28754;47.700;7.924;2024-01-15T09:36:42;5.53;;;3.17;;
42614;SDS011;28754;47.700;7.924;2024-01-15T09:39:28;8.50;;;3.38;;
42614;SDS011;28754;47.700;7.924;2024-01-15T09:42:16;4.85;;;2.63;;
42614;SDS011;28754;47.700;7.924;2024-01-15T09:45:03;5.30;;;3.23;;
42614;SDS011;28754;47.700;7.924;2024-01-15T09:47:51;8.05;;;3.92;;
42614;SDS011;28754;47.700;7.924;2024-01-15T09:50:38;11.20;;;6.50;;
42614;SDS011;28754;47.700;7.924;2024-01-15T09:53:25;14.80;;;5.97;;
42614;SDS011;28754;47.700;7.924;2024-01-15T09:56:11;16.00;;;6.53;;
42614;SDS011;28754;47.700;7.924;2024-01-15T09:58:59;11.90;;;6.37;;
42614;SDS011;28754;47.700;7.924;2024-01-15T10:01:47;7.18;;;4.30;;
42614;SDS011;28754;47.700;7.924;2024-01-15T10:04:36;9.50;;;5.57;;
42614;SDS011;28754;47.700;7.924;2024-01-15T10:07:22;8.40;;;4.65;;
42614;SDS011;28754;47.700;7.924;2024-01-15T10:10:11;10.47;;;4.63;;
42614;SDS011;28754;47.700;7.924;2024-01-15T10:12:58;8.75;;;5.03;;
42614;SDS011;28754;47.700;7.924;2024-01-15T10:15:46;9.60;;;4.53;;
42614;SDS011;28754;47.700;7.924;2024-01-15T10:18:33;8.02;;;5.18;;
42614;SDS011;28754;47.700;7.924;2024-01-15T10:21:19;13.13;;;7.53;;
42614;SDS011;28754;47.700;7.924;2024-01-15T10:24:06;10.05;;;5.15;;
42614;SDS011;28754;47.700;7.924;2024-01-15T10:26:56;12.43;;;5.05;;
42614;SDS011;28754;47.700;7.924;2024-01-15T10:29:58;8.07;;;4.95;;
42614;SDS011;28754;47.700;7.924;2024-01-15T10:32:56;8.68;;;5.43;;
42614;SDS011;28754;47.700;7.924;2024-01-15T10:35:49;13.20;;;5.85;;
42614;SDS011;28754;47.700;7.924;2024-01-15T10:38:35;11.77;;;6.40;;
42614;SDS011;28754;47.700;7.924;2024-01-15T10:41:22;11.93;;;5.97;;
42614;SDS011;28754;47.700;7.924;2024-01-15T10:44:09;11.07;;;5.72;;
42614;SDS011;28754;47.700;7.924;2024-01-15T10:46:56;9.65;;;6.05;;
42614;SDS011;28754;47.700;7.924;2024-01-15T10:49:44;15.55;;;8.18;;
42614;SDS011;28754;47.700;7.924;2024-01-15T10:52:31;15.45;;;6.97;;
42614;SDS011;28754;47.700;7.924;2024-01-15T10:55:20;9.82;;;6.47;;
42614;SDS011;28754;47.700;7.924;2024-01-15T10:58:09;11.70;;;6.00;;
42614;SDS011;28754;47.700;7.924;2024-01-15T11:00:56;10.68;;;5.95;;
42614;SDS011;28754;47.700;7.924;2024-01-15T11:03:43;13.07;;;5.85;;
42614;SDS011;28754;47.700;7.924;2024-01-15T11:06:41;10.50;;;5.47;;
42614;SDS011;28754;47.700;7.924;2024-01-15T11:09:30;10.45;;;5.72;;
42614;SDS011;28754;47.700;7.924;2024-01-15T11:12:17;11.27;;;5.65;;
42614;SDS011;28754;47.700;7.924;2024-01-15T11:15:05;9.55;;;4.93;;
42614;SDS011;28754;47.700;7.924;2024-01-15T11:17:58;12.77;;;7.13;;
42614;SDS011;28754;47.700;7.924;2024-01-15T11:24:00;11.80;;;7.15;;
42614;SDS011;28754;47.700;7.924;2024-01-15T11:26:47;14.68;;;8.73;;
42614;SDS011;28754;47.700;7.924;2024-01-15T11:29:35;15.18;;;9.02;;
42614;SDS011;28754;47.700;7.924;2024-01-15T11:32:23;16.40;;;9.45;;
42614;SDS011;28754;47.700;7.924;2024-01-15T11:35:19;15.55;;;9.25;;
42614;SDS011;28754;47.700;7.924;2024-01-15T11:38:06;17.02;;;9.50;;
42614;SDS011;28754;47.700;7.924;2024-01-15T11:40:53;20.10;;;10.48;;
42614;SDS011;28754;47.700;7.924;2024-01-15T11:43:40;18.08;;;9.40;;
42614;SDS011;28754;47.700;7.924;2024-01-15T11:46:26;17.65;;;9.25;;
42614;SDS011;28754;47.700;7.924;2024-01-15T11:52:50;17.08;;;9.88;;
42614;SDS011;28754;47.700;7.924;2024-01-15T11:55:49;24.77;;;12.57;;
42614;SDS011;28754;47.700;7.924;2024-01-15T11:58:38;23.08;;;11.98;;
42614;SDS011;28754;47.700;7.924;2024-01-15T12:01:25;24.67;;;12.80;;
42614;SDS011;28754;47.700;7.924;2024-01-15T12:04:11;25.30;;;13.93;;
42614;SDS011;28754;47.700;7.924;2024-01-15T12:06:59;25.20;;;13.40;;
42614;SDS011;28754;47.700;7.924;2024-01-15T12:09:45;23.33;;;13.10;;
42614;SDS011;28754;47.700;7.924;2024-01-15T12:13:09;27.43;;;14.40;;
42614;SDS011;28754;47.700;7.924;2024-01-15T12:15:50;25.23;;;12.93;;
42614;SDS011;28754;47.700;7.924;2024-01-15T12:18:37;27.37;;;12.53;;
42614;SDS011;28754;47.700;7.924;2024-01-15T12:21:26;22.80;;;12.10;;
42614;SDS011;28754;47.700;7.924;2024-01-15T12:24:12;25.57;;;12.33;;
42614;SDS011;28754;47.700;7.924;2024-01-15T12:26:59;15.53;;;10.57;;
42614;SDS011;28754;47.700;7.924;2024-01-15T12:29:46;19.83;;;9.83;;
42614;SDS011;28754;47.700;7.924;2024-01-15T12:32:32;17.60;;;11.40;;
42614;SDS011;28754;47.700;7.924;2024-01-15T12:35:20;22.67;;;9.73;;
42614;SDS011;28754;47.700;7.924;2024-01-15T12:38:07;22.17;;;10.37;;
42614;SDS011;28754;47.700;7.924;2024-01-15T12:40:53;17.07;;;10.43;;
42614;SDS011;28754;47.700;7.924;2024-01-15T12:43:40;16.73;;;8.93;;
42614;SDS011;28754;47.700;7.924;2024-01-15T12:46:27;15.77;;;7.70;;
42614;SDS011;28754;47.700;7.924;2024-01-15T12:49:14;13.33;;;7.87;;
42614;SDS011;28754;47.700;7.924;2024-01-15T12:52:00;13.90;;;7.00;;
42614;SDS011;28754;47.700;7.924;2024-01-15T12:54:51;13.07;;;7.07;;
42614;SDS011;28754;47.700;7.924;2024-01-15T12:57:38;11.15;;;6.15;;
42614;SDS011;28754;47.700;7.924;2024-01-15T13:00:24;14.02;;;6.70;;
42614;SDS011;28754;47.700;7.924;2024-01-15T13:03:11;11.83;;;6.77;;
42614;SDS011;28754;47.700;7.924;2024-01-15T13:05:59;12.00;;;7.50;;
42614;SDS011;28754;47.700;7.924;2024-01-15T13:08:46;12.93;;;6.50;;
42614;SDS011;28754;47.700;7.924;2024-01-15T13:11:33;11.10;;;6.87;;
42614;SDS011;28754;47.700;7.924;2024-01-15T13:14:20;11.60;;;6.45;;
42614;SDS011;28754;47.700;7.924;2024-01-15T13:17:06;13.13;;;7.25;;
42614;SDS011;28754;47.700;7.924;2024-01-15T13:19:53;14.27;;;7.30;;
42614;SDS011;28754;47.700;7.924;2024-01-15T13:22:39;13.70;;;7.77;;
42614;SDS011;28754;47.700;7.924;2024-01-15T13:25:29;13.33;;;6.77;;
42614;SDS011;28754;47.700;7.924;2024-01-15T13:28:16;11.43;;;7.80;;
42614;SDS011;28754;47.700;7.924;2024-01-15T13:31:03;13.23;;;7.30;;
42614;SDS011;28754;47.700;7.924;2024-01-15T13:33:50;12.52;;;8.30;;
42614;SDS011;28754;47.700;7.924;2024-01-15T13:36:37;13.87;;;7.30;;
42614;SDS011;28754;47.700;7.924;2024-01-15T13:39:24;13.10;;;8.90;;
42614;SDS011;28754;47.700;7.924;2024-01-15T13:42:11;13.23;;;8.00;;
42614;SDS011;28754;47.700;7.924;2024-01-15T13:44:58;14.03;;;7.60;;
42614;SDS011;28754;47.700;7.924;2024-01-15T13:47:44;13.10;;;7.93;;
42614;SDS011;28754;47.700;7.924;2024-01-15T13:50:31;14.23;;;8.60;;
42614;SDS011;28754;47.700;7.924;2024-01-15T13:53:18;12.90;;;8.20;;
42614;SDS011;28754;47.700;7.924;2024-01-15T13:56:05;11.63;;;7.17;;
42614;SDS011;28754;47.700;7.924;2024-01-15T13:58:52;12.07;;;7.83;;
42614;SDS011;28754;47.700;7.924;2024-01-15T14:01:40;16.33;;;7.90;;
42614;SDS011;28754;47.700;7.924;2024-01-15T14:04:28;14.53;;;6.97;;
42614;SDS011;28754;47.700;7.924;2024-01-15T14:07:15;13.73;;;7.13;;
42614;SDS011;28754;47.700;7.924;2024-01-15T14:10:02;15.07;;;7.47;;
42614;SDS011;28754;47.700;7.924;2024-01-15T14:12:50;10.93;;;6.83;;
42614;SDS011;28754;47.700;7.924;2024-01-15T14:15:36;13.13;;;7.13;;
42614;SDS011;28754;47.700;7.924;2024-01-15T14:18:23;15.17;;;7.83;;
42614;SDS011;28754;47.700;7.924;2024-01-15T14:21:10;14.97;;;7.73;;
42614;SDS011;28754;47.700;7.924;2024-01-15T14:23:56;13.40;;;8.07;;
42614;SDS011;28754;47.700;7.924;2024-01-15T14:26:43;12.13;;;7.13;;
42614;SDS011;28754;47.700;7.924;2024-01-15T14:29:30;16.47;;;9.03;;
42614;SDS011;28754;47.700;7.924;2024-01-15T14:32:17;16.40;;;8.70;;
42614;SDS011;28754;47.700;7.924;2024-01-15T14:35:04;15.93;;;7.73;;
42614;SDS011;28754;47.700;7.924;2024-01-15T14:37:52;22.77;;;11.40;;
42614;SDS011;28754;47.700;7.924;2024-01-15T14:40:38;19.97;;;9.23;;
42614;SDS011;28754;47.700;7.924;2024-01-15T14:43:25;17.03;;;9.50;;
42614;SDS011;28754;47.700;7.924;2024-01-15T14:46:11;18.93;;;9.43;;
42614;SDS011;28754;47.700;7.924;2024-01-15T14:48:58;14.20;;;8.27;;
42614;SDS011;28754;47.700;7.924;2024-01-15T14:51:45;21.30;;;9.70;;
42614;SDS011;28754;47.700;7.924;2024-01-15T14:54:31;15.80;;;9.97;;
42614;SDS011;28754;47.700;7.924;2024-01-15T14:57:18;16.73;;;8.73;;
42614;SDS011;28754;47.700;7.924;2024-01-15T15:00:05;18.33;;;9.07;;
42614;SDS011;28754;47.700;7.924;2024-01-15T15:02:54;18.73;;;9.77;;
42614;SDS011;28754;47.700;7.924;2024-01-15T15:05:41;21.33;;;10.03;;
42614;SDS011;28754;47.700;7.924;2024-01-15T15:08:28;18.53;;;8.60;;
42614;SDS011;28754;47.700;7.924;2024-01-15T15:11:15;14.53;;;8.87;;
42614;SDS011;28754;47.700;7.924;2024-01-15T15:14:02;18.40;;;9.87;;
42614;SDS011;28754;47.700;7.924;2024-01-15T15:16:49;15.87;;;10.00;;
42614;SDS011;28754;47.700;7.924;2024-01-15T15:19:36;13.67;;;8.27;;
42614;SDS011;28754;47.700;7.924;2024-01-15T15:22:23;14.50;;;6.90;;
42614;SDS011;28754;47.700;7.924;2024-01-15T15:25:10;15.57;;;7.43;;
42614;SDS011;28754;47.700;7.924;2024-01-15T15:27:58;19.77;;;8.60;;
42614;SDS011;28754;47.700;7.924;2024-01-15T15:30:44;16.93;;;9.63;;
42614;SDS011;28754;47.700;7.924;2024-01-15T15:33:31;20.67;;;11.83;;
42614;SDS011;28754;47.700;7.924;2024-01-15T15:36:18;19.77;;;11.77;;
42614;SDS011;28754;47.700;7.924;2024-01-15T15:39:05;15.47;;;8.83;;
42614;SDS011;28754;47.700;7.924;2024-01-15T15:41:52;21.20;;;10.50;;
42614;SDS011;28754;47.700;7.924;2024-01-15T15:44:39;18.93;;;11.00;;
42614;SDS011;28754;47.700;7.924;2024-01-15T15:47:31;20.40;;;10.97;;
42614;SDS011;28754;47.700;7.924;2024-01-15T15:50:18;26.27;;;12.67;;
42614;SDS011;28754;47.700;7.924;2024-01-15T15:53:05;73.97;;;15.50;;
42614;SDS011;28754;47.700;7.924;2024-01-15T15:55:52;56.23;;;14.37;;
42614;SDS011;28754;47.700;7.924;2024-01-15T15:58:38;52.03;;;14.57;;
42614;SDS011;28754;47.700;7.924;2024-01-15T16:01:25;55.53;;;16.00;;
42614;SDS011;28754;47.700;7.924;2024-01-15T16:04:12;38.57;;;12.90;;
42614;SDS011;28754;47.700;7.924;2024-01-15T16:07:00;71.97;;;15.83;;
42614;SDS011;28754;47.700;7.924;2024-01-15T16:09:49;34.50;;;13.83;;
42614;SDS011;28754;47.700;7.924;2024-01-15T16:12:35;208.53;;;28.93;;
42614;SDS011;28754;47.700;7.924;2024-01-15T16:15:22;59.80;;;14.37;;
42614;SDS011;28754;47.700;7.924;2024-01-15T16:18:09;79.00;;;14.93;;
42614;SDS011;28754;47.700;7.924;2024-01-15T16:20:56;42.63;;;12.47;;
42614;SDS011;28754;47.700;7.924;2024-01-15T16:23:42;83.80;;;15.63;;
42614;SDS011;28754;47.700;7.924;2024-01-15T16:26:29;38.37;;;13.17;;
42614;SDS011;28754;47.700;7.924;2024-01-15T16:29:16;40.13;;;12.73;;
42614;SDS011;28754;47.700;7.924;2024-01-15T16:32:02;31.10;;;12.23;;
42614;SDS011;28754;47.700;7.924;2024-01-15T16:34:49;22.33;;;12.03;;